createdAt,value
2018-07-04T00:02:33.847Z,101009.54
2018-07-04T00:05:14.329Z,101006.75
2018-07-04T00:07:54.551Z,101003.91
2018-07-04T00:10:34.792Z,100999.34
2018-07-04T00:13:15.179Z,101006.08
2018-07-04T00:15:55.665Z,101001.81
2018-07-04T00:18:35.919Z,101004.66
2018-07-04T00:21:16.083Z,101004.02
2018-07-04T00:23:56.429Z,101008.06
2018-07-04T00:26:36.778Z,101006.37
2018-07-04T00:29:17.061Z,101003.23
2018-07-04T00:31:57.432Z,101002.73
2018-07-04T00:34:37.779Z,101005.73
2018-07-04T00:37:18.068Z,101001.84
2018-07-04T00:40:05.723Z,101002.20
2018-07-04T00:42:49.045Z,100995.25
2018-07-04T00:45:29.368Z,100991.36
2018-07-04T00:48:09.666Z,100988.66
2018-07-04T00:50:50.110Z,100986.27
2018-07-04T00:53:30.420Z,100985.63
2018-07-04T00:56:11.012Z,100986.32
2018-07-04T00:58:51.420Z,100983.03
2018-07-04T01:01:31.761Z,100982.47
2018-07-04T01:04:12.190Z,100983.23
2018-07-04T01:06:52.338Z,100986.37
2018-07-04T01:09:32.816Z,100983.83
2018-07-04T01:12:12.975Z,100981.92
2018-07-04T01:14:53.405Z,100973.98
2018-07-04T01:17:33.611Z,100975.34
2018-07-04T01:20:13.987Z,100973.50
2018-07-04T01:22:54.246Z,100970.91
2018-07-04T01:25:34.722Z,100973.23
2018-07-04T01:28:15.076Z,100976.37
2018-07-04T01:30:55.371Z,100965.41
2018-07-04T01:33:35.721Z,100967.66
2018-07-04T01:36:16.324Z,100964.26
2018-07-04T01:38:56.600Z,100961.52
2018-07-04T01:41:36.933Z,100956.18
2018-07-04T01:44:17.174Z,100954.08
2018-07-04T01:46:57.555Z,100953.30
2018-07-04T01:49:37.956Z,100946.11
2018-07-04T01:52:18.261Z,100952.61
2018-07-04T01:54:58.433Z,100948.87
2018-07-04T01:57:38.990Z,100943.93
2018-07-04T02:00:19.261Z,100951.39
2018-07-04T02:02:59.491Z,100945.59
2018-07-04T02:05:39.701Z,100942.63
2018-07-04T02:08:19.940Z,100941.72
2018-07-04T02:11:00.364Z,100943.36
2018-07-04T02:13:40.605Z,100948.84
2018-07-04T02:16:20.843Z,100950.53
2018-07-04T02:19:01.237Z,100951.83
2018-07-04T02:21:41.520Z,100952.72
2018-07-04T02:24:22.047Z,100957.32
2018-07-04T02:27:02.343Z,100960.88
2018-07-04T02:29:42.574Z,100951.45
2018-07-04T02:32:22.948Z,100954.00
2018-07-04T02:35:03.431Z,100949.59
2018-07-04T02:37:43.867Z,100945.08
2018-07-04T02:40:24.239Z,100941.91
2018-07-04T02:43:04.612Z,100941.67
2018-07-04T02:45:44.776Z,100942.81
2018-07-04T02:48:25.342Z,100945.17
2018-07-04T02:51:05.750Z,100936.38
2018-07-04T02:53:45.969Z,100939.36
2018-07-04T02:56:26.190Z,100939.79
2018-07-04T02:59:06.540Z,100934.89
2018-07-04T03:01:47.346Z,100938.02
2018-07-04T03:04:28.527Z,100943.44
2018-07-04T03:07:08.828Z,100939.84
2018-07-04T03:09:49.309Z,100943.33
2018-07-04T03:12:29.558Z,100940.34
2018-07-04T03:15:10.068Z,100937.42
2018-07-04T03:17:50.441Z,100944.28
2018-07-04T03:20:30.666Z,100942.39
2018-07-04T03:23:11.115Z,100942.30
2018-07-04T03:25:51.311Z,100937.92
2018-07-04T03:28:31.718Z,100939.41
2018-07-04T03:31:11.880Z,100940.80
2018-07-04T03:33:52.195Z,100941.45
2018-07-04T03:36:32.458Z,100936.95
2018-07-04T03:39:12.848Z,100940.27
2018-07-04T03:41:53.185Z,100937.23
2018-07-04T03:44:33.388Z,100939.54
2018-07-04T03:47:13.704Z,100934.97
2018-07-04T03:49:54.062Z,100934.86
2018-07-04T03:52:34.295Z,100935.24
2018-07-04T03:55:14.553Z,100936.86
2018-07-04T03:57:54.920Z,100931.59
2018-07-04T04:00:35.080Z,100930.62
2018-07-04T04:03:15.263Z,100936.48
2018-07-04T04:05:55.719Z,100943.84
2018-07-04T04:08:36.139Z,100942.09
2018-07-04T04:11:16.370Z,100935.08
2018-07-04T04:13:56.744Z,100928.08
2018-07-04T04:16:36.962Z,100934.47
2018-07-04T04:19:22.460Z,100935.73
2018-07-04T04:22:02.910Z,100937.28
2018-07-04T04:24:43.210Z,100947.61
2018-07-04T04:27:23.709Z,100946.50
2018-07-04T04:30:04.043Z,100949.91
2018-07-04T04:32:44.585Z,100950.53
2018-07-04T04:35:24.855Z,100947.84
2018-07-04T04:38:05.180Z,100955.42
2018-07-04T04:40:45.781Z,100946.70
2018-07-04T04:43:26.119Z,100949.81
2018-07-04T04:46:06.596Z,100948.13
2018-07-04T04:48:46.977Z,100948.41
2018-07-04T04:51:27.162Z,100953.78
2018-07-04T04:54:09.125Z,100956.61
2018-07-04T04:56:50.240Z,100951.92
2018-07-04T04:59:30.677Z,100956.47
2018-07-04T05:02:10.975Z,100959.59
2018-07-04T05:04:51.373Z,100954.00
2018-07-04T05:07:31.654Z,100949.34
2018-07-04T05:10:11.988Z,100947.76
2018-07-04T05:12:52.258Z,100951.11
2018-07-04T05:15:32.472Z,100955.91
2018-07-04T05:18:12.993Z,100952.02
2018-07-04T05:20:53.330Z,100942.61
2018-07-04T05:23:33.668Z,100946.50
2018-07-04T05:26:14.098Z,100941.32
2018-07-04T05:28:54.442Z,100939.84
2018-07-04T05:31:34.821Z,100940.47
2018-07-04T05:34:15.232Z,100939.27
2018-07-04T05:36:55.557Z,100940.75
2018-07-04T05:39:36.007Z,100936.81
2018-07-04T05:42:16.275Z,100936.52
2018-07-04T05:44:56.452Z,100935.23
2018-07-04T05:47:36.691Z,100929.43
2018-07-04T05:50:17.102Z,100934.32
2018-07-04T05:52:57.566Z,100929.99
2018-07-04T05:55:37.883Z,100938.09
2018-07-04T05:58:18.277Z,100938.37
2018-07-04T06:00:58.651Z,100940.54
2018-07-04T06:03:38.888Z,100931.48
2018-07-04T06:06:19.093Z,100928.62
2018-07-04T06:08:59.433Z,100930.01
2018-07-04T06:11:39.748Z,100928.00
2018-07-04T06:14:19.950Z,100924.16
2018-07-04T06:19:37.708Z,100921.02
2018-07-04T06:22:17.924Z,100928.27
2018-07-04T06:24:58.318Z,100924.56
2018-07-04T06:27:38.875Z,100932.16
2018-07-04T06:30:19.407Z,100929.50
2018-07-04T06:32:59.899Z,100936.27
2018-07-04T06:35:40.327Z,100928.82
2018-07-04T06:38:08.265Z,100932.11
2018-07-04T06:40:36.191Z,100927.48
2018-07-04T06:43:04.134Z,100929.48
2018-07-04T06:45:32.052Z,100925.84
2018-07-04T06:48:00.033Z,100921.58
2018-07-04T06:50:27.958Z,100924.64
2018-07-04T06:52:55.888Z,100924.36
2018-07-04T06:55:23.832Z,100927.77
2018-07-04T06:57:51.797Z,100927.67
2018-07-04T07:00:19.707Z,100929.23
2018-07-04T07:02:47.642Z,100930.59
2018-07-04T07:05:27.865Z,100932.76
2018-07-04T07:08:08.351Z,100934.78
2018-07-04T07:10:48.759Z,100935.30
2018-07-04T07:13:29.227Z,100936.70
2018-07-04T07:16:09.550Z,100935.08
2018-07-04T07:18:50.077Z,100936.12
2018-07-04T07:21:30.455Z,100936.68
2018-07-04T07:24:11.005Z,100930.94
2018-07-04T07:26:51.562Z,100926.69
2018-07-04T07:29:32.009Z,100927.28
2018-07-04T07:32:12.267Z,100926.58
2018-07-04T07:34:52.618Z,100921.20
2018-07-04T07:37:32.785Z,100923.84
2018-07-04T07:40:13.179Z,100927.08
2018-07-04T07:42:53.632Z,100927.73
2018-07-04T07:45:34.204Z,100929.09
2018-07-04T07:48:14.602Z,100922.77
2018-07-04T07:50:54.887Z,100918.13
2018-07-04T07:53:35.314Z,100915.63
2018-07-04T07:56:15.682Z,100920.58
2018-07-04T07:58:55.839Z,100917.25
2018-07-04T08:01:36.958Z,100917.91
2018-07-04T08:04:17.189Z,100918.76
2018-07-04T08:06:57.510Z,100923.17
2018-07-04T08:09:37.722Z,100921.00
2018-07-04T08:12:18.487Z,100921.39
2018-07-04T08:14:58.822Z,100912.13
2018-07-04T08:17:39.132Z,100915.16
2018-07-04T08:20:19.328Z,100919.76
2018-07-04T08:22:59.568Z,100921.44
2018-07-04T08:25:40.048Z,100927.19
2018-07-04T08:28:20.276Z,100925.78
2018-07-04T08:31:00.524Z,100918.66
2018-07-04T08:33:40.743Z,100923.24
2018-07-04T08:36:20.901Z,100918.12
2018-07-04T08:39:01.332Z,100927.10
2018-07-04T08:41:41.717Z,100921.69
2018-07-04T08:44:21.957Z,100931.70
2018-07-04T08:47:02.304Z,100929.31
2018-07-04T08:49:42.512Z,100920.17
2018-07-04T08:52:22.799Z,100916.13
2018-07-04T08:55:03.187Z,100923.73
2018-07-04T08:57:43.357Z,100931.02
2018-07-04T09:00:23.512Z,100929.52
2018-07-04T09:03:03.770Z,100936.81
2018-07-04T09:05:44.081Z,100944.30
2018-07-04T09:08:24.366Z,100940.73
2018-07-04T09:11:04.788Z,100945.97
2018-07-04T09:13:45.164Z,100943.77
2018-07-04T09:16:25.439Z,100947.45
2018-07-04T09:19:05.745Z,100950.62
2018-07-04T09:21:45.978Z,100946.73
2018-07-04T09:24:26.150Z,100957.25
2018-07-04T09:27:06.294Z,100966.73
2018-07-04T09:29:46.721Z,100967.03
2018-07-04T09:32:26.932Z,100969.06
2018-07-04T09:35:07.315Z,100976.47
2018-07-04T09:37:47.656Z,100976.74
2018-07-04T09:40:28.129Z,100980.13
2018-07-04T09:43:08.577Z,100979.96
2018-07-04T09:45:48.900Z,100979.63
2018-07-04T09:48:29.297Z,100984.05
2018-07-04T09:51:09.494Z,100993.17
2018-07-04T09:53:49.917Z,100988.23
2018-07-04T09:56:30.306Z,100988.10
2018-07-04T09:59:10.688Z,100995.20
2018-07-04T10:01:51.054Z,100990.12
2018-07-04T10:04:31.281Z,100988.06
2018-07-04T10:07:11.549Z,100982.34
2018-07-04T10:09:51.909Z,100972.86
2018-07-04T10:12:32.152Z,100969.10
2018-07-04T10:15:12.369Z,100972.19
2018-07-04T10:17:52.693Z,100973.21
2018-07-04T10:20:33.004Z,100971.50
2018-07-04T10:23:13.360Z,100970.69
2018-07-04T10:25:53.718Z,100971.87
2018-07-04T10:28:33.887Z,100967.96
2018-07-04T10:31:14.216Z,100974.73
2018-07-04T10:33:54.480Z,100968.13
2018-07-04T10:36:34.792Z,100963.91
2018-07-04T10:39:15.180Z,100962.48
2018-07-04T10:41:55.521Z,100964.70
2018-07-04T10:44:36.452Z,100954.88
2018-07-04T10:47:16.727Z,100961.67
2018-07-04T10:49:56.924Z,100948.83
2018-07-04T10:52:37.255Z,100947.97
2018-07-04T10:55:17.392Z,100950.84
2018-07-04T10:57:57.784Z,100958.66
2018-07-04T11:00:38.082Z,100950.89
2018-07-04T11:03:18.485Z,100951.54
2018-07-04T11:05:58.835Z,100944.96
2018-07-04T11:08:39.242Z,100942.70
2018-07-04T11:11:19.749Z,100943.38
2018-07-04T11:14:00.099Z,100928.08
2018-07-04T11:16:40.483Z,100926.99
2018-07-04T11:19:20.622Z,100919.89
2018-07-04T11:22:00.997Z,100916.61
2018-07-04T11:24:41.357Z,100918.00
2018-07-04T11:27:21.710Z,100915.08
2018-07-04T11:30:01.976Z,100909.39
2018-07-04T11:32:42.406Z,100910.28
2018-07-04T11:35:22.792Z,100905.48
2018-07-04T11:38:02.976Z,100901.41
2018-07-04T11:40:43.382Z,100910.74
2018-07-04T11:43:23.562Z,100912.28
2018-07-04T11:46:00.188Z,100918.63
2018-07-04T11:48:28.420Z,100915.73
2018-07-04T11:50:56.474Z,100914.48
2018-07-04T11:53:24.399Z,100923.48
2018-07-04T11:55:52.335Z,100925.18
2018-07-04T11:58:20.267Z,100933.34
2018-07-04T12:00:48.162Z,100934.66
2018-07-04T12:03:17.988Z,100933.94
2018-07-04T12:05:58.501Z,100935.09
2018-07-04T12:08:26.450Z,100936.00
2018-07-04T12:10:54.864Z,100930.20
2018-07-04T12:13:23.994Z,100931.14
2018-07-04T12:15:52.441Z,100919.92
2018-07-04T12:18:20.384Z,100921.29
2018-07-04T12:20:48.341Z,100919.19
2018-07-04T12:23:16.573Z,100922.16
2018-07-04T12:25:45.249Z,100916.68
2018-07-04T12:28:13.192Z,100920.19
2018-07-04T12:30:41.093Z,100915.86
2018-07-04T12:33:09.031Z,100917.10
2018-07-04T12:35:36.931Z,100925.34
2018-07-04T12:38:04.865Z,100928.50
2018-07-04T12:40:32.803Z,100930.17
2018-07-04T12:43:00.664Z,100926.85
2018-07-04T12:45:28.602Z,100932.84
2018-07-04T12:47:56.512Z,100933.88
2018-07-04T12:50:28.646Z,100935.55
2018-07-04T12:52:56.601Z,100931.64
2018-07-04T12:55:39.433Z,100936.59
2018-07-04T12:58:20.577Z,100931.96
2018-07-04T13:01:01.100Z,100925.95
2018-07-04T13:03:41.487Z,100918.30
2018-07-04T13:06:21.683Z,100916.07
2018-07-04T13:09:02.181Z,100914.78
2018-07-04T13:11:42.362Z,100914.42
2018-07-04T13:14:22.588Z,100912.09
2018-07-04T13:17:02.970Z,100914.52
2018-07-04T13:19:43.346Z,100911.01
2018-07-04T13:22:23.569Z,100918.50
2018-07-04T13:25:03.836Z,100911.09
2018-07-04T13:27:44.200Z,100912.65
2018-07-04T13:30:24.566Z,100911.90
2018-07-04T13:33:04.894Z,100920.73
2018-07-04T13:35:45.035Z,100911.48
2018-07-04T13:38:25.457Z,100911.11
2018-07-04T13:41:05.834Z,100914.50
2018-07-04T13:43:46.000Z,100915.91
2018-07-04T13:46:26.445Z,100920.18
2018-07-04T13:49:06.576Z,100915.72
2018-07-04T13:51:46.950Z,100918.67
2018-07-04T13:54:27.167Z,100920.52
2018-07-04T13:57:07.440Z,100926.95
2018-07-04T13:59:47.732Z,100922.45
2018-07-04T14:02:28.100Z,100914.75
2018-07-04T14:05:08.339Z,100913.70
2018-07-04T14:07:48.635Z,100915.30
2018-07-04T14:10:28.993Z,100915.78
2018-07-04T14:13:09.150Z,100915.16
2018-07-04T14:15:49.572Z,100920.73
2018-07-04T14:18:29.950Z,100917.38
2018-07-04T14:21:10.100Z,100914.65
2018-07-04T14:23:50.374Z,100914.19
2018-07-04T14:26:30.762Z,100913.75
2018-07-04T14:29:10.862Z,100912.91
2018-07-04T14:31:51.065Z,100909.44
2018-07-04T14:34:31.245Z,100904.55
2018-07-04T14:37:11.682Z,100909.86
2018-07-04T14:39:52.022Z,100906.30
2018-07-04T14:42:32.375Z,100901.80
2018-07-04T14:45:12.554Z,100903.67
2018-07-04T14:47:52.874Z,100897.63
2018-07-04T14:50:33.090Z,100896.31
2018-07-04T14:53:13.325Z,100886.95
2018-07-04T14:55:53.710Z,100887.34
2018-07-04T14:58:34.040Z,100879.20
2018-07-04T15:01:14.534Z,100879.00
2018-07-04T15:03:54.884Z,100865.02
2018-07-04T15:06:35.262Z,100876.59
2018-07-04T15:09:15.453Z,100867.73
2018-07-04T15:11:55.926Z,100870.66
2018-07-04T15:14:36.314Z,100871.23
2018-07-04T15:17:16.783Z,100869.42
2018-07-04T15:19:57.127Z,100871.00
2018-07-04T15:22:37.631Z,100866.64
2018-07-04T15:25:17.995Z,100868.66
2018-07-04T15:27:58.253Z,100868.41
2018-07-04T15:30:38.667Z,100860.80
2018-07-04T15:33:19.083Z,100859.18
2018-07-04T15:35:59.545Z,100860.80
2018-07-04T15:38:40.026Z,100856.03
2018-07-04T15:41:20.246Z,100850.59
2018-07-04T15:44:00.387Z,100850.91
2018-07-04T15:46:40.537Z,100860.23
2018-07-04T15:49:20.781Z,100858.34
2018-07-04T15:52:01.055Z,100854.33
2018-07-04T15:54:41.437Z,100860.49
2018-07-04T15:57:21.770Z,100861.36
2018-07-04T16:00:01.988Z,100855.94
2018-07-04T16:02:42.266Z,100848.85
2018-07-04T16:05:22.726Z,100847.97
2018-07-04T16:08:03.077Z,100854.54
2018-07-04T16:10:43.438Z,100853.77
2018-07-04T16:13:23.639Z,100853.50
2018-07-04T16:16:04.128Z,100855.53
2018-07-04T16:18:44.315Z,100854.78
2018-07-04T16:21:24.737Z,100860.35
2018-07-04T16:24:04.973Z,100856.00
2018-07-04T16:26:45.300Z,100856.57
2018-07-04T16:29:25.497Z,100853.16
2018-07-04T16:32:05.760Z,100859.20
2018-07-04T16:34:46.032Z,100862.71
2018-07-04T16:37:26.140Z,100861.80
2018-07-04T16:40:06.576Z,100853.97
2018-07-04T16:42:46.696Z,100845.72
2018-07-04T16:45:27.151Z,100841.87
2018-07-04T16:48:07.337Z,100843.77
2018-07-04T16:50:47.665Z,100839.59
2018-07-04T16:53:27.953Z,100831.85
2018-07-04T16:56:08.592Z,100825.78
2018-07-04T16:58:48.779Z,100831.85
2018-07-04T17:01:29.235Z,100824.89
2018-07-04T17:04:09.504Z,100820.37
2018-07-04T17:06:49.789Z,100815.77
2018-07-04T17:09:30.074Z,100816.52
2018-07-04T17:12:10.379Z,100819.10
2018-07-04T17:14:50.583Z,100814.13
2018-07-04T17:17:30.879Z,100812.61
2018-07-04T17:20:11.159Z,100806.56
2018-07-04T17:22:51.453Z,100806.61
2018-07-04T17:25:31.714Z,100802.86
2018-07-04T17:28:12.170Z,100802.17
2018-07-04T17:30:52.359Z,100798.23
2018-07-04T17:33:32.662Z,100795.20
2018-07-04T17:36:12.902Z,100792.31
2018-07-04T17:38:53.262Z,100793.05
2018-07-04T17:41:34.115Z,100793.62
2018-07-04T17:44:14.516Z,100786.14
2018-07-04T17:46:54.890Z,100790.91
2018-07-04T17:49:35.167Z,100788.00
2018-07-04T17:52:15.427Z,100794.53
2018-07-04T17:54:55.855Z,100794.97
2018-07-04T17:57:36.134Z,100791.02
2018-07-04T18:00:16.348Z,100790.89
2018-07-04T18:02:56.572Z,100787.52
2018-07-04T18:05:37.739Z,100781.83
2018-07-04T18:08:18.202Z,100781.66
2018-07-04T18:10:58.329Z,100790.47
2018-07-04T18:13:38.822Z,100793.13
2018-07-04T18:16:19.214Z,100797.57
2018-07-04T18:18:59.577Z,100792.50
2018-07-04T18:21:40.135Z,100797.57
2018-07-04T18:24:20.723Z,100798.92
2018-07-04T18:27:01.275Z,100795.45
2018-07-04T18:29:41.436Z,100796.69
2018-07-04T18:32:21.621Z,100803.31
2018-07-04T18:35:01.894Z,100800.33
2018-07-04T18:37:42.174Z,100804.94
2018-07-04T18:40:22.612Z,100805.03
2018-07-04T18:43:03.029Z,100795.91
2018-07-04T18:45:43.346Z,100802.09
2018-07-04T18:48:23.603Z,100807.55
2018-07-04T18:51:03.840Z,100812.61
2018-07-04T18:53:44.286Z,100818.70
2018-07-04T18:56:24.693Z,100819.41
2018-07-04T18:59:05.128Z,100814.70
2018-07-04T19:01:45.646Z,100807.61
2018-07-04T19:04:25.861Z,100806.81
2018-07-04T19:07:06.235Z,100806.81
2018-07-04T19:09:46.485Z,100806.52
2018-07-04T19:12:26.918Z,100805.33
2018-07-04T19:15:07.147Z,100805.68
2018-07-04T19:17:47.595Z,100807.70
2018-07-04T19:20:27.892Z,100808.41
2018-07-04T19:23:08.245Z,100805.55
2018-07-04T19:25:49.439Z,100822.63
2018-07-04T19:28:30.244Z,100821.11
2018-07-04T19:31:11.514Z,100827.03
2018-07-04T19:50:06.949Z,100829.21
2018-07-04T19:52:47.337Z,100834.81
2018-07-04T19:55:27.558Z,100838.34
2018-07-04T19:58:08.061Z,100837.49
2018-07-04T20:00:49.164Z,100841.19
2018-07-04T20:03:29.568Z,100832.73
2018-07-04T20:06:10.080Z,100827.31
2018-07-04T20:08:50.429Z,100820.53
2018-07-04T20:11:30.829Z,100825.41
2018-07-04T20:14:11.122Z,100819.94
2018-07-04T20:16:52.179Z,100818.42
2018-07-04T20:19:32.985Z,100816.38
2018-07-04T20:22:13.726Z,100817.53
2018-07-04T20:24:54.875Z,100818.52
2018-07-04T20:27:36.130Z,100821.75
2018-07-04T20:30:16.626Z,100816.31
2018-07-04T20:32:56.947Z,100811.23
2018-07-04T20:35:37.473Z,100806.16
2018-07-04T20:38:17.852Z,100802.77
2018-07-04T20:40:58.268Z,100798.52
2018-07-04T20:43:38.663Z,100795.61
2018-07-04T20:46:19.257Z,100797.81
2018-07-04T20:48:59.512Z,100806.23
2018-07-04T20:51:39.682Z,100809.77
2018-07-04T20:54:21.203Z,100797.11
2018-07-04T20:57:01.849Z,100806.03
2018-07-04T20:59:42.010Z,100807.30
2018-07-04T21:02:22.529Z,100804.11
2018-07-04T21:05:03.560Z,100810.16
2018-07-04T21:07:44.412Z,100808.48
2018-07-04T21:10:25.216Z,100821.44
2018-07-04T21:13:06.362Z,100819.06
2018-07-04T21:15:47.438Z,100818.69
2018-07-04T21:18:28.796Z,100824.23
2018-07-04T21:21:10.000Z,100828.39
2018-07-04T21:23:59.782Z,100829.89
2018-07-04T21:26:43.016Z,100837.97
2018-07-04T21:29:23.983Z,100843.20
2018-07-04T21:32:05.000Z,100856.84
2018-07-04T21:34:46.036Z,100856.63
2018-07-04T21:37:27.721Z,100861.30
2018-07-04T21:40:08.698Z,100861.95
2018-07-04T21:42:49.751Z,100870.72
2018-07-04T21:58:36.055Z,100875.36
2018-07-04T22:01:17.221Z,100877.16
2018-07-04T22:03:58.307Z,100877.81
2018-07-04T22:06:39.899Z,100874.94
2018-07-04T22:09:21.030Z,100880.42
2018-07-04T22:12:02.161Z,100880.91
2018-07-04T22:14:43.297Z,100877.70
2018-07-04T22:17:23.943Z,100876.66
2018-07-04T22:20:04.604Z,100870.89
2018-07-04T22:22:44.955Z,100870.38
2018-07-04T22:25:25.346Z,100869.30
2018-07-04T22:28:05.808Z,100862.05
2018-07-04T22:30:46.650Z,100868.42
2018-07-04T22:33:27.486Z,100876.16
2018-07-04T22:36:08.022Z,100873.44
2018-07-04T22:38:48.277Z,100869.55
2018-07-04T22:41:28.651Z,100879.95
2018-07-04T22:44:09.524Z,100871.63
2018-07-04T22:46:50.379Z,100871.25
2018-07-04T22:49:31.278Z,100873.88
2018-07-04T22:52:11.842Z,100878.23
2018-07-04T22:54:52.430Z,100883.45
2018-07-04T22:57:32.606Z,100870.63
2018-07-04T23:00:12.670Z,100861.36
2018-07-04T23:02:52.873Z,100858.81
2018-07-04T23:05:33.206Z,100851.16
2018-07-04T23:08:13.607Z,100845.44
2018-07-04T23:10:54.109Z,100844.55
2018-07-04T23:13:34.578Z,100841.63
2018-07-04T23:16:15.302Z,100840.44
2018-07-04T23:18:56.838Z,100843.43
2018-07-04T23:21:37.990Z,100838.50
2018-07-04T23:24:19.252Z,100839.50
2018-07-04T23:27:01.729Z,100831.32
2018-07-04T23:29:44.186Z,100837.49
2018-07-04T23:32:24.986Z,100842.35
2018-07-04T23:35:05.423Z,100836.55
2018-07-04T23:37:45.935Z,100840.89
2018-07-04T23:40:26.467Z,100852.62
2018-07-04T23:43:07.093Z,100855.58
2018-07-04T23:45:47.493Z,100852.80
2018-07-04T23:48:27.962Z,100859.19
2018-07-04T23:51:08.553Z,100850.83
2018-07-04T23:53:49.157Z,100836.02
2018-07-04T23:56:29.299Z,100825.97
2018-07-04T23:59:09.675Z,100825.12
